Airfield :
LOGIN :

Register | Disclaimer

   EN    FR    IT 

 










Legend :    VFR   Marginal VFR   IFR   Intensive IFR   Very Intensive IFR
Visi :
Ceiling :
>= 8 km
>= 3000ft
5 to 8 km
1000 to 3000 ft
1500m to 5 km
500 to 1000 ft
800 to 1500m
200 to 500 ft
< 800m
< 200 ft
Symbols :   Thunderstorms  Fog  Heavy snow  Heavy precipitations  Wind > 20 kt
SIGMETs :     Misc.  Thunderstorms  Icing  Turbulence  Mountain Waves  Volcanic Ashes







- Airport Elevation : 126 ft
- IATA code : WIC
- Download approach charts


EGPC - Wick

CURRENT METAR :
  • 160620Z AUTO 18004KT 140V200 9999 BKN002/// BKN008/// 11/11 Q1006

EXPIRED METARs :
  • 160550Z AUTO 16005KT 6000 OVC001/// 11/11 Q1006
  • 160520Z AUTO 16005KT 5000 BR OVC001/// 10/10 Q1006 RERA
  • 160450Z AUTO VRB03KT 3500 RA OVC001/// 10/10 Q1006
  • 160420Z AUTO 16005KT 7000 -RA OVC002/// 10/10 Q1006
  • 160350Z 16005KT 9999 BKN003 10/10 Q1007

TAF TAF EGPC
Valid from the 16 at 06:00 until the 16 at 15:00 UTC


160458Z 1606/1615 12009KT 0300 FG VV///
BECMG 1606/1609 18012KT 9999 NSW FEW005
PROB40
TEMPO 1609/1612 8000 -SHRA
TEMPO 1612/1615 5000 SHRA
ATIS : +44 1955 607 596
No reported NOTAMs for that airfield.



MET'MAP, your aeronautical weather chart ! - Copyright ORBIFLY December 2007 - Disclaimer

ORBIFLY MET'MAP TEAM :

Programming & Development : Alexandra Zaïnal
Concept & Development : Baudouin d'Aumeries
Co-Development & Prog : Marc-Olivier Méhu
Technical & hardware support : Manuel Goepfert

Contact : metmap@orbifly.com




SOURCES & CREDITS :

   NOAA